createdAt,value
2023-02-15T00:00:24.139Z,100807.91
2023-02-15T00:01:26.555Z,100807.09
2023-02-15T00:02:28.703Z,100806.22
2023-02-15T00:03:30.856Z,100801.16
2023-02-15T00:04:48.007Z,100804.66
2023-02-15T00:05:50.595Z,100803.03
2023-02-15T00:06:52.907Z,100806.38
2023-02-15T00:07:55.084Z,100794.34
2023-02-15T00:08:57.582Z,100797.03
2023-02-15T00:09:59.776Z,100797.69
2023-02-15T00:11:38.639Z,100794.25
2023-02-15T00:12:41.067Z,100796.97
2023-02-15T00:13:43.664Z,100791.72
2023-02-15T00:14:45.968Z,100792.69
2023-02-15T00:15:48.153Z,100788.34
2023-02-15T00:16:52.495Z,100791.88
2023-02-15T00:17:54.779Z,100793.56
2023-02-15T00:18:57.121Z,100796.31
2023-02-15T00:19:59.339Z,100790.31
2023-02-15T00:21:08.812Z,100795.50
2023-02-15T00:22:11.083Z,100793.84
2023-02-15T00:23:13.357Z,100800.53
2023-02-15T00:24:18.168Z,100793.66
2023-02-15T00:25:20.456Z,100792.81
2023-02-15T00:26:22.795Z,100792.84
2023-02-15T00:27:25.200Z,100791.09
2023-02-15T00:28:27.432Z,100789.34
2023-02-15T00:29:29.706Z,100789.41
2023-02-15T00:30:32.088Z,100790.22
2023-02-15T00:31:34.819Z,100793.66
2023-02-15T00:32:38.141Z,100796.22
2023-02-15T00:33:41.050Z,100791.06
2023-02-15T00:34:44.227Z,100788.53
2023-02-15T00:35:46.446Z,100789.44
2023-02-15T00:36:49.806Z,100782.47
2023-02-15T00:37:53.321Z,100789.03
2023-02-15T00:38:55.646Z,100784.88
2023-02-15T00:39:57.847Z,100785.72
2023-02-15T00:41:02.020Z,100783.97
2023-02-15T00:42:04.351Z,100786.69
2023-02-15T00:43:06.625Z,100780.75
2023-02-15T00:44:09.392Z,100784.06
2023-02-15T00:45:11.611Z,100790.19
2023-02-15T00:46:13.814Z,100787.72
2023-02-15T00:47:16.036Z,100786.28
2023-02-15T00:48:18.487Z,100789.91
2023-02-15T00:49:20.725Z,100793.94
2023-02-15T00:50:24.016Z,100785.25
2023-02-15T00:51:26.821Z,100785.13
2023-02-15T00:52:28.995Z,100790.75
2023-02-15T00:53:32.157Z,100790.97
2023-02-15T00:54:35.622Z,100783.69
2023-02-15T00:55:38.100Z,100791.47
2023-02-15T00:56:40.325Z,100777.78
2023-02-15T00:57:43.588Z,100788.91
2023-02-15T00:58:45.872Z,100779.16
2023-02-15T00:59:48.271Z,100782.47
2023-02-15T01:00:50.720Z,100789.44
2023-02-15T01:01:52.932Z,100788.81
2023-02-15T01:02:55.534Z,100790.09
2023-02-15T01:03:58.257Z,100786.59
2023-02-15T01:05:00.425Z,100784.13
2023-02-15T01:06:03.925Z,100787.38
2023-02-15T01:07:06.217Z,100782.13
2023-02-15T01:08:09.743Z,100776.41
2023-02-15T01:09:14.553Z,100778.00
2023-02-15T01:10:17.143Z,100780.16
2023-02-15T01:11:25.565Z,100774.47
2023-02-15T01:12:27.751Z,100781.16
2023-02-15T01:13:29.933Z,100773.34
2023-02-15T01:14:32.179Z,100775.22
2023-02-15T01:15:37.378Z,100768.44
2023-02-15T01:16:40.110Z,100777.53
2023-02-15T01:17:42.452Z,100783.00
2023-02-15T01:18:44.806Z,100779.94
2023-02-15T01:19:46.970Z,100778.06
2023-02-15T01:20:49.330Z,100779.53
2023-02-15T01:21:51.805Z,100788.34
2023-02-15T01:22:55.124Z,100778.66
2023-02-15T01:23:57.243Z,100774.28
2023-02-15T01:24:59.493Z,100778.81
2023-02-15T01:26:05.130Z,100777.84
2023-02-15T01:27:07.379Z,100782.06
2023-02-15T01:28:09.637Z,100788.06
2023-02-15T01:29:11.867Z,100784.53
2023-02-15T01:30:15.447Z,100785.50
2023-02-15T01:31:21.172Z,100788.06
2023-02-15T01:32:23.999Z,100793.78
2023-02-15T01:33:26.517Z,100794.19
2023-02-15T01:34:30.609Z,100784.81
2023-02-15T01:35:33.692Z,100787.56
2023-02-15T01:36:36.147Z,100791.84
2023-02-15T01:37:38.885Z,100786.78
2023-02-15T01:38:41.138Z,100789.31
2023-02-15T01:39:43.715Z,100784.22
2023-02-15T01:40:46.915Z,100788.44
2023-02-15T01:41:49.098Z,100791.06
2023-02-15T01:42:54.876Z,100782.69
2023-02-15T01:43:59.968Z,100790.53
2023-02-15T01:45:14.903Z,100790.31
2023-02-15T01:46:20.094Z,100784.22
2023-02-15T01:47:48.775Z,100783.47
2023-02-15T01:49:00.802Z,100785.78
2023-02-15T01:50:17.226Z,100790.31
2023-02-15T01:51:24.433Z,100789.31
2023-02-15T01:52:27.063Z,100790.00
2023-02-15T01:53:39.341Z,100788.06
2023-02-15T01:54:47.637Z,100778.94
2023-02-15T01:56:06.824Z,100791.84
2023-02-15T01:57:20.512Z,100781.31
2023-02-15T01:58:24.070Z,100783.88
2023-02-15T01:59:27.173Z,100782.91
2023-02-15T02:02:14.135Z,100777.97
2023-02-15T02:03:16.546Z,100780.22
2023-02-15T02:04:26.473Z,100775.41
2023-02-15T02:05:29.953Z,100774.59
2023-02-15T02:06:34.290Z,100773.13
2023-02-15T02:07:42.710Z,100776.56
2023-02-15T02:08:45.246Z,100767.50
2023-02-15T02:09:48.878Z,100769.78
2023-02-15T02:10:51.147Z,100770.66
2023-02-15T02:11:55.276Z,100767.13
2023-02-15T02:13:05.558Z,100759.41
2023-02-15T02:14:08.162Z,100760.22
2023-02-15T02:15:11.259Z,100760.84
2023-02-15T02:16:22.297Z,100759.22
2023-02-15T02:17:51.032Z,100757.38
2023-02-15T02:19:34.074Z,100752.78
2023-02-15T02:21:08.257Z,100743.16
2023-02-15T02:22:40.696Z,100749.00
2023-02-15T02:24:01.546Z,100739.44
2023-02-15T02:25:26.656Z,100739.84
2023-02-15T02:27:06.453Z,100743.84
2023-02-15T02:28:24.502Z,100742.25
2023-02-15T02:29:41.971Z,100745.84
2023-02-15T02:30:46.723Z,100745.78
2023-02-15T02:32:07.293Z,100739.78
2023-02-15T02:33:42.248Z,100738.69
2023-02-15T02:34:50.324Z,100731.25
2023-02-15T02:36:12.226Z,100737.28
2023-02-15T02:37:33.130Z,100734.72
2023-02-15T02:38:50.385Z,100732.72
2023-02-15T02:40:07.715Z,100729.78
2023-02-15T02:41:39.127Z,100729.28
2023-02-15T02:42:45.133Z,100735.47
2023-02-15T02:44:05.058Z,100734.72
2023-02-15T02:45:14.271Z,100726.06
2023-02-15T02:46:27.193Z,100731.09
2023-02-15T02:47:36.950Z,100725.22
2023-02-15T02:48:39.805Z,100726.09
2023-02-15T02:49:44.714Z,100728.66
2023-02-15T02:50:46.948Z,100733.69
2023-02-15T02:51:59.358Z,100725.94
2023-02-15T02:53:01.634Z,100726.09
2023-02-15T02:54:07.458Z,100719.81
2023-02-15T02:55:14.857Z,100719.66
2023-02-15T02:56:37.658Z,100721.25
2023-02-15T02:57:55.000Z,100721.31
2023-02-15T02:59:06.497Z,100717.22
2023-02-15T03:00:10.125Z,100716.94
2023-02-15T03:01:29.172Z,100710.94
2023-02-15T03:02:38.368Z,100704.72
2023-02-15T03:03:45.394Z,100706.38
2023-02-15T03:04:59.172Z,100701.03
2023-02-15T03:06:07.619Z,100704.63
2023-02-15T03:07:13.999Z,100707.00
2023-02-15T03:08:23.101Z,100703.41
2023-02-15T03:09:42.666Z,100698.16
2023-02-15T03:10:45.773Z,100695.63
2023-02-15T03:11:49.613Z,100691.25
2023-02-15T03:12:53.274Z,100685.28
2023-02-15T03:13:55.594Z,100694.72
2023-02-15T03:15:05.183Z,100691.28
2023-02-15T03:16:27.869Z,100700.97
2023-02-15T03:17:33.511Z,100698.63
2023-02-15T03:18:42.507Z,100704.38
2023-02-15T03:19:47.311Z,100702.31
2023-02-15T03:20:51.900Z,100703.28
2023-02-15T03:22:09.982Z,100699.25
2023-02-15T03:23:17.705Z,100703.78
2023-02-15T03:24:27.631Z,100697.63
2023-02-15T03:25:37.636Z,100700.38
2023-02-15T03:26:46.396Z,100701.97
2023-02-15T03:27:53.955Z,100702.16
2023-02-15T03:29:02.810Z,100697.84
2023-02-15T03:30:07.550Z,100699.41
2023-02-15T03:31:14.218Z,100693.53
2023-02-15T03:32:18.218Z,100705.50
2023-02-15T03:33:23.099Z,100698.81
2023-02-15T03:34:25.653Z,100701.25
2023-02-15T03:35:37.131Z,100704.59
2023-02-15T03:36:54.128Z,100700.34
2023-02-15T03:38:01.830Z,100694.50
2023-02-15T03:39:35.579Z,100702.06
2023-02-15T03:41:03.655Z,100692.25
2023-02-15T03:42:18.636Z,100694.97
2023-02-15T03:43:39.133Z,100694.78
2023-02-15T03:44:55.167Z,100699.06
2023-02-15T03:46:05.598Z,100694.91
2023-02-15T03:47:16.259Z,100687.13
2023-02-15T03:48:19.945Z,100694.78
2023-02-15T03:49:32.482Z,100691.06
2023-02-15T03:50:56.068Z,100699.69
2023-02-15T03:52:01.228Z,100698.19
2023-02-15T03:53:07.162Z,100696.69
2023-02-15T03:54:13.550Z,100692.22
2023-02-15T03:55:15.865Z,100691.28
2023-02-15T03:56:18.277Z,100693.81
2023-02-15T03:57:47.361Z,100688.56
2023-02-15T03:59:08.446Z,100692.00
2023-02-15T04:06:23.800Z,100689.38
2023-02-15T04:07:25.981Z,100696.34
2023-02-15T04:08:48.199Z,100697.38
2023-02-15T04:10:09.012Z,100698.88
2023-02-15T04:11:11.271Z,100698.75
2023-02-15T04:12:13.802Z,100698.03
2023-02-15T04:13:16.031Z,100693.88
2023-02-15T04:14:37.125Z,100696.34
2023-02-15T04:16:06.372Z,100700.75
2023-02-15T04:17:10.712Z,100704.13
2023-02-15T04:18:13.117Z,100696.38
2023-02-15T04:19:33.726Z,100696.94
2023-02-15T04:20:54.346Z,100693.78
2023-02-15T04:22:15.780Z,100691.88
2023-02-15T04:23:36.445Z,100695.25
2023-02-15T04:24:57.610Z,100693.69
2023-02-15T04:26:00.212Z,100691.03
2023-02-15T04:27:04.107Z,100698.72
2023-02-15T04:28:08.570Z,100698.63
2023-02-15T04:29:10.903Z,100693.69
2023-02-15T04:30:14.981Z,100695.47
2023-02-15T04:31:17.326Z,100691.94
2023-02-15T04:32:19.601Z,100690.03
2023-02-15T04:33:21.883Z,100685.78
2023-02-15T04:34:24.232Z,100687.81
2023-02-15T04:35:26.730Z,100695.59
2023-02-15T04:36:29.026Z,100692.97
2023-02-15T04:37:31.328Z,100692.84
2023-02-15T04:38:33.526Z,100685.28
2023-02-15T04:39:35.804Z,100689.50
2023-02-15T04:40:38.014Z,100685.28
2023-02-15T04:41:40.507Z,100686.03
2023-02-15T04:42:42.941Z,100682.03
2023-02-15T04:43:45.167Z,100686.53
2023-02-15T04:44:47.410Z,100683.88
2023-02-15T04:45:51.466Z,100672.44
2023-02-15T04:46:53.737Z,100680.97
2023-02-15T04:47:56.032Z,100678.25
2023-02-15T04:48:58.633Z,100674.06
2023-02-15T04:50:01.209Z,100679.88
2023-02-15T04:51:07.722Z,100676.22
2023-02-15T04:52:10.394Z,100674.78
2023-02-15T04:53:13.036Z,100685.16
2023-02-15T04:54:15.251Z,100682.53
2023-02-15T04:55:17.476Z,100683.91
2023-02-15T04:56:20.599Z,100666.31
2023-02-15T04:57:22.768Z,100664.50
2023-02-15T04:58:24.955Z,100672.28
2023-02-15T04:59:27.214Z,100675.78
2023-02-15T05:00:29.681Z,100676.44
2023-02-15T05:01:32.100Z,100671.88
2023-02-15T05:02:34.361Z,100670.03
2023-02-15T05:03:36.976Z,100667.50
2023-02-15T05:04:39.196Z,100665.06
2023-02-15T05:05:41.641Z,100670.19
2023-02-15T05:06:43.971Z,100672.66
2023-02-15T05:07:46.238Z,100666.53
2023-02-15T05:08:48.453Z,100665.66
2023-02-15T05:09:50.818Z,100665.59
2023-02-15T05:10:53.023Z,100675.84
2023-02-15T05:11:55.291Z,100665.69
2023-02-15T05:12:57.541Z,100665.81
2023-02-15T05:14:01.637Z,100664.13
2023-02-15T05:15:03.986Z,100662.44
2023-02-15T05:16:06.280Z,100668.41
2023-02-15T05:17:08.944Z,100660.75
2023-02-15T05:18:11.218Z,100664.22
2023-02-15T05:19:13.709Z,100661.03
2023-02-15T05:20:16.036Z,100665.38
2023-02-15T05:21:18.295Z,100653.16
2023-02-15T05:22:20.546Z,100662.81
2023-02-15T05:23:22.933Z,100668.81
2023-02-15T05:24:43.881Z,100659.13
2023-02-15T05:26:08.568Z,100662.63
2023-02-15T05:27:30.580Z,100654.09
2023-02-15T05:28:32.827Z,100661.28
2023-02-15T05:29:35.056Z,100662.28
2023-02-15T05:30:37.570Z,100662.03
2023-02-15T05:31:40.136Z,100658.63
2023-02-15T05:32:42.650Z,100664.84
2023-02-15T05:33:45.493Z,100664.00
2023-02-15T05:34:47.897Z,100660.53
2023-02-15T05:35:52.025Z,100665.16
2023-02-15T05:36:54.233Z,100653.28
2023-02-15T05:37:56.434Z,100668.84
2023-02-15T05:38:58.612Z,100664.84
2023-02-15T05:40:00.901Z,100658.84
2023-02-15T05:41:03.217Z,100660.94
2023-02-15T05:42:05.474Z,100658.72
2023-02-15T05:43:07.755Z,100660.06
2023-02-15T05:44:09.938Z,100663.38
2023-02-15T05:45:12.129Z,100656.84
2023-02-15T05:46:14.527Z,100663.91
2023-02-15T05:47:16.999Z,100664.50
2023-02-15T05:48:20.551Z,100664.00
2023-02-15T05:49:22.786Z,100665.13
2023-02-15T05:50:25.659Z,100664.47
2023-02-15T05:51:27.846Z,100666.75
2023-02-15T05:52:30.186Z,100664.66
2023-02-15T05:53:34.522Z,100667.34
2023-02-15T05:54:36.741Z,100667.03
2023-02-15T05:55:42.966Z,100669.78
2023-02-15T05:56:46.764Z,100658.91
2023-02-15T05:57:51.791Z,100664.19
2023-02-15T05:58:55.870Z,100668.16
2023-02-15T05:59:58.794Z,100673.97
2023-02-15T06:01:12.813Z,100668.34
2023-02-15T06:02:15.060Z,100677.81
2023-02-15T06:03:17.422Z,100674.31
2023-02-15T06:04:19.998Z,100682.06
2023-02-15T06:05:22.374Z,100680.72
2023-02-15T06:06:25.341Z,100676.41
2023-02-15T06:07:27.708Z,100676.91
2023-02-15T06:08:29.935Z,100676.28
2023-02-15T06:09:32.119Z,100683.91
2023-02-15T06:10:34.463Z,100680.22
2023-02-15T06:11:36.709Z,100674.19
2023-02-15T06:12:39.041Z,100677.75
2023-02-15T06:13:41.460Z,100682.34
2023-02-15T06:14:43.847Z,100678.88
2023-02-15T06:15:46.131Z,100681.06
2023-02-15T06:16:48.389Z,100683.34
2023-02-15T06:17:50.604Z,100676.69
2023-02-15T06:18:53.855Z,100676.81
2023-02-15T06:19:56.327Z,100675.09
2023-02-15T06:20:58.563Z,100680.63
2023-02-15T06:22:00.862Z,100685.78
2023-02-15T06:23:03.041Z,100681.59
2023-02-15T06:24:05.385Z,100688.63
2023-02-15T06:25:10.739Z,100688.00
2023-02-15T06:26:12.968Z,100697.09
2023-02-15T06:27:15.324Z,100697.16
2023-02-15T06:28:17.496Z,100699.66
2023-02-15T06:29:19.709Z,100707.69
2023-02-15T06:30:22.039Z,100706.75
2023-02-15T06:31:24.450Z,100705.84
2023-02-15T06:32:26.904Z,100716.69
2023-02-15T06:33:31.189Z,100700.44
2023-02-15T06:34:33.893Z,100705.28
2023-02-15T06:35:36.118Z,100700.19
2023-02-15T06:36:38.319Z,100704.94
2023-02-15T06:37:40.705Z,100695.13
2023-02-15T06:38:42.883Z,100707.00
2023-02-15T06:39:45.355Z,100708.59
2023-02-15T06:40:47.769Z,100711.69
2023-02-15T06:41:50.037Z,100705.31
2023-02-15T06:42:52.292Z,100709.13
2023-02-15T06:43:54.502Z,100696.50
2023-02-15T06:44:56.814Z,100694.34
2023-02-15T06:45:59.265Z,100706.91
2023-02-15T06:47:01.599Z,100706.06
2023-02-15T06:48:03.949Z,100704.44
2023-02-15T06:49:06.856Z,100705.63
2023-02-15T06:50:10.193Z,100711.78
2023-02-15T06:51:12.417Z,100707.59
2023-02-15T06:52:14.670Z,100714.50
2023-02-15T06:53:17.058Z,100715.63
2023-02-15T06:54:19.296Z,100708.13
2023-02-15T06:55:21.550Z,100714.19
2023-02-15T06:56:23.753Z,100709.72
2023-02-15T06:57:25.959Z,100710.63
2023-02-15T06:58:28.165Z,100709.59
2023-02-15T06:59:30.424Z,100720.97
2023-02-15T07:00:32.696Z,100715.69
2023-02-15T07:01:35.029Z,100713.38
2023-02-15T07:02:37.285Z,100710.66
2023-02-15T07:03:39.470Z,100713.09
2023-02-15T07:04:41.689Z,100713.94
2023-02-15T07:05:44.554Z,100720.19
2023-02-15T07:06:46.881Z,100715.47
2023-02-15T07:07:49.364Z,100711.31
2023-02-15T07:08:51.732Z,100716.66
2023-02-15T07:09:53.979Z,100711.91
2023-02-15T07:11:16.913Z,100702.81
2023-02-15T07:12:37.759Z,100712.81
2023-02-15T07:13:39.846Z,100710.31
2023-02-15T07:14:42.020Z,100709.66
2023-02-15T07:15:44.780Z,100714.16
2023-02-15T07:16:47.044Z,100703.91
2023-02-15T07:17:50.127Z,100706.38
2023-02-15T07:18:52.317Z,100705.69
2023-02-15T07:19:54.577Z,100706.38
2023-02-15T07:20:56.829Z,100708.09
2023-02-15T07:21:59.091Z,100713.78
2023-02-15T07:23:01.324Z,100706.09
2023-02-15T07:24:04.154Z,100717.03
2023-02-15T07:25:08.999Z,100721.84
2023-02-15T07:26:11.274Z,100724.09
2023-02-15T07:27:13.698Z,100713.69
2023-02-15T07:28:16.824Z,100717.13
2023-02-15T07:29:19.185Z,100719.88
2023-02-15T07:30:21.480Z,100716.00
2023-02-15T07:31:23.739Z,100723.72
2023-02-15T07:32:30.007Z,100723.78
2023-02-15T07:33:33.385Z,100711.13
2023-02-15T07:34:35.644Z,100714.84
2023-02-15T07:35:37.921Z,100714.84
2023-02-15T07:36:40.155Z,100712.50
2023-02-15T07:37:42.363Z,100717.41
2023-02-15T07:38:45.724Z,100719.97
2023-02-15T07:39:47.933Z,100722.38
2023-02-15T07:40:50.150Z,100717.88
2023-02-15T07:41:52.489Z,100731.38
2023-02-15T07:42:55.541Z,100727.06
2023-02-15T07:43:57.924Z,100725.50
2023-02-15T07:45:00.175Z,100727.47
2023-02-15T07:46:08.396Z,100728.44
2023-02-15T07:47:10.931Z,100726.06
2023-02-15T07:48:13.162Z,100728.59
2023-02-15T07:49:15.782Z,100725.75
2023-02-15T07:50:18.057Z,100731.75
2023-02-15T07:51:20.316Z,100721.25
2023-02-15T07:52:22.552Z,100726.16
2023-02-15T07:53:24.769Z,100732.06
2023-02-15T07:54:26.971Z,100730.81
2023-02-15T07:55:29.312Z,100715.31
2023-02-15T07:56:33.582Z,100725.03
2023-02-15T07:57:36.323Z,100714.81
2023-02-15T07:58:54.786Z,100712.25
2023-02-15T07:59:56.991Z,100718.16
2023-02-15T08:00:59.468Z,100722.59
2023-02-15T08:02:01.738Z,100719.50
2023-02-15T08:03:16.594Z,100715.19
2023-02-15T08:04:19.075Z,100716.22
2023-02-15T08:05:21.396Z,100717.59
2023-02-15T08:06:25.814Z,100721.75
2023-02-15T08:07:27.976Z,100720.84
2023-02-15T08:08:33.259Z,100721.06
2023-02-15T08:09:35.503Z,100716.81
2023-02-15T08:10:56.033Z,100720.19
2023-02-15T08:11:58.282Z,100711.78
2023-02-15T08:13:00.573Z,100714.06
2023-02-15T08:14:11.637Z,100716.97
2023-02-15T08:15:13.897Z,100703.03
2023-02-15T08:16:16.198Z,100706.41
2023-02-15T08:17:19.043Z,100703.78
2023-02-15T08:18:21.281Z,100700.81
2023-02-15T08:19:26.223Z,100700.53
2023-02-15T08:20:28.676Z,100704.72
2023-02-15T08:21:31.888Z,100703.91
2023-02-15T08:22:34.134Z,100704.22
2023-02-15T08:23:36.388Z,100708.06
2023-02-15T08:24:38.777Z,100699.44
2023-02-15T08:25:41.004Z,100698.44
2023-02-15T08:26:45.877Z,100692.59
2023-02-15T08:27:48.209Z,100695.78
2023-02-15T08:28:52.026Z,100694.19
2023-02-15T08:29:54.315Z,100688.53
2023-02-15T08:30:56.558Z,100689.38
2023-02-15T08:32:05.105Z,100693.03
2023-02-15T08:33:07.292Z,100697.63
2023-02-15T08:34:12.204Z,100695.09
2023-02-15T08:35:14.487Z,100698.50
2023-02-15T08:36:20.304Z,100693.09
2023-02-15T08:37:22.538Z,100701.50
2023-02-15T08:38:24.728Z,100705.03
2023-02-15T08:39:27.134Z,100692.63
2023-02-15T08:40:29.358Z,100692.84
2023-02-15T08:41:37.334Z,100691.94
2023-02-15T08:42:39.535Z,100693.13
2023-02-15T08:43:42.798Z,100685.25
2023-02-15T08:44:45.105Z,100690.81
2023-02-15T08:45:47.374Z,100696.56
2023-02-15T08:46:50.795Z,100694.66
2023-02-15T08:47:53.905Z,100689.81
2023-02-15T08:48:56.645Z,100686.50
2023-02-15T08:49:58.889Z,100683.31
2023-02-15T08:51:06.927Z,100684.94
2023-02-15T08:52:09.135Z,100689.31
2023-02-15T08:53:11.296Z,100689.25
2023-02-15T08:54:16.535Z,100685.97
2023-02-15T08:55:18.738Z,100689.69
2023-02-15T08:56:23.292Z,100688.72
2023-02-15T08:57:25.467Z,100683.88
2023-02-15T08:58:28.971Z,100693.25
2023-02-15T08:59:31.229Z,100686.88
2023-02-15T09:00:33.451Z,100692.59
2023-02-15T09:01:36.082Z,100691.06
2023-02-15T09:02:38.671Z,100687.13
2023-02-15T09:03:41.160Z,100685.91
2023-02-15T09:04:43.381Z,100684.59
2023-02-15T09:05:45.637Z,100689.66
2023-02-15T09:06:49.730Z,100686.22
2023-02-15T09:07:51.936Z,100689.47
2023-02-15T09:08:54.999Z,100689.56
2023-02-15T09:09:57.174Z,100689.69
2023-02-15T09:11:09.676Z,100675.84
2023-02-15T09:12:11.730Z,100683.13
2023-02-15T09:13:14.167Z,100681.59
2023-02-15T09:14:20.958Z,100688.72
2023-02-15T09:15:23.220Z,100694.81
2023-02-15T09:16:27.910Z,100694.72
2023-02-15T09:17:30.127Z,100692.91
2023-02-15T09:18:36.338Z,100697.06
2023-02-15T09:19:38.531Z,100689.66
2023-02-15T09:20:40.761Z,100686.19
2023-02-15T09:21:42.972Z,100684.97
2023-02-15T09:22:45.459Z,100677.75
2023-02-15T09:23:50.181Z,100680.41
2023-02-15T09:24:52.654Z,100673.44
2023-02-15T09:25:54.939Z,100683.59
2023-02-15T09:26:57.221Z,100679.41
2023-02-15T09:27:59.517Z,100680.13
2023-02-15T09:29:04.378Z,100676.78
2023-02-15T09:30:07.500Z,100670.84
2023-02-15T09:31:11.154Z,100671.41
2023-02-15T09:32:15.077Z,100671.28
2023-02-15T09:33:17.416Z,100669.47
2023-02-15T09:34:22.103Z,100671.31
2023-02-15T09:35:24.369Z,100665.41
2023-02-15T09:36:29.469Z,100662.06
2023-02-15T09:37:32.807Z,100659.09
2023-02-15T09:38:35.059Z,100662.91
2023-02-15T09:39:40.591Z,100660.28
2023-02-15T09:41:02.163Z,100654.03
2023-02-15T09:42:16.500Z,100657.34
2023-02-15T09:43:55.475Z,100649.75
2023-02-15T09:45:24.758Z,100658.47
2023-02-15T09:46:35.699Z,100664.97
2023-02-15T09:48:22.427Z,100659.63
2023-02-15T09:49:51.468Z,100656.72
2023-02-15T09:51:16.753Z,100653.19
2023-02-15T09:52:24.916Z,100660.97
2023-02-15T09:53:51.939Z,100667.97
2023-02-15T09:55:01.377Z,100659.13
2023-02-15T09:56:24.989Z,100664.94
2023-02-15T09:57:54.301Z,100663.53
2023-02-15T09:59:22.790Z,100668.13
2023-02-15T10:00:50.356Z,100670.94
2023-02-15T10:02:17.477Z,100668.13
2023-02-15T10:03:28.381Z,100660.94
2023-02-15T10:04:45.533Z,100659.97
2023-02-15T10:06:09.261Z,100670.41
2023-02-15T10:07:23.605Z,100670.56
2023-02-15T10:08:43.110Z,100668.81
2023-02-15T10:09:52.553Z,100658.69
2023-02-15T10:11:33.859Z,100673.09
2023-02-15T10:12:54.293Z,100671.34
2023-02-15T10:14:11.397Z,100662.88
2023-02-15T10:15:37.457Z,100672.78
2023-02-15T10:16:52.741Z,100672.97
2023-02-15T10:18:12.709Z,100672.72
2023-02-15T10:19:42.852Z,100667.22
2023-02-15T10:20:52.379Z,100661.47
2023-02-15T10:22:46.217Z,100654.28
2023-02-15T10:24:16.118Z,100653.84
2023-02-15T10:25:34.662Z,100652.81
2023-02-15T10:26:45.978Z,100660.44
2023-02-15T10:27:50.175Z,100669.47
2023-02-15T10:29:17.103Z,100669.50
2023-02-15T10:30:29.384Z,100658.53
2023-02-15T10:31:46.077Z,100670.81
2023-02-15T10:33:04.015Z,100659.97
2023-02-15T10:34:25.487Z,100669.63
2023-02-15T10:35:48.323Z,100674.63
2023-02-15T10:36:59.244Z,100666.69
2023-02-15T10:38:05.884Z,100669.00
2023-02-15T10:39:35.291Z,100661.47
2023-02-15T10:41:00.869Z,100662.00
2023-02-15T10:42:12.079Z,100665.84
2023-02-15T10:43:39.052Z,100660.69
2023-02-15T10:45:13.488Z,100665.91
2023-02-15T10:46:34.463Z,100665.25
2023-02-15T10:47:56.116Z,100656.31
2023-02-15T10:49:24.472Z,100658.06
2023-02-15T10:51:03.265Z,100662.56
2023-02-15T10:52:26.990Z,100659.81
2023-02-15T10:53:58.319Z,100670.00
2023-02-15T10:55:25.219Z,100666.41
2023-02-15T10:56:45.242Z,100663.66
2023-02-15T10:58:00.928Z,100662.38
2023-02-15T10:59:24.934Z,100665.56
2023-02-15T11:00:39.294Z,100663.97
2023-02-15T11:02:01.900Z,100670.38
2023-02-15T11:03:42.323Z,100667.53
2023-02-15T11:04:56.476Z,100672.00
2023-02-15T11:06:20.738Z,100668.69
2023-02-15T11:07:44.093Z,100664.88
2023-02-15T11:08:50.833Z,100662.38
2023-02-15T11:10:02.568Z,100659.03
2023-02-15T11:11:12.488Z,100660.53
2023-02-15T11:12:19.999Z,100654.66
2023-02-15T11:13:28.522Z,100649.66
2023-02-15T11:14:34.263Z,100657.28
2023-02-15T11:15:43.011Z,100651.28
2023-02-15T11:16:54.766Z,100653.66
2023-02-15T11:18:21.269Z,100646.88
2023-02-15T11:19:32.285Z,100654.31
2023-02-15T11:20:42.770Z,100649.09
2023-02-15T11:21:50.805Z,100645.88
2023-02-15T11:22:54.378Z,100645.13
2023-02-15T11:23:57.087Z,100647.56
2023-02-15T11:25:01.864Z,100652.47
2023-02-15T11:26:11.268Z,100653.47
2023-02-15T11:27:13.576Z,100662.03
2023-02-15T11:28:25.720Z,100653.06
2023-02-15T11:29:47.160Z,100648.69
2023-02-15T11:30:56.751Z,100639.75
2023-02-15T11:32:26.551Z,100645.88
2023-02-15T11:33:32.525Z,100646.91
2023-02-15T11:34:38.603Z,100644.84
2023-02-15T11:36:19.210Z,100643.59
2023-02-15T11:37:30.584Z,100639.75
2023-02-15T11:38:34.639Z,100630.34
2023-02-15T11:39:38.300Z,100631.41
2023-02-15T11:40:58.669Z,100634.41
2023-02-15T11:42:07.638Z,100627.28
2023-02-15T11:43:36.833Z,100617.19
2023-02-15T11:45:06.135Z,100623.28
2023-02-15T11:46:12.544Z,100610.88
2023-02-15T11:47:15.268Z,100610.28
2023-02-15T11:48:18.755Z,100610.59
2023-02-15T11:49:25.768Z,100610.03
2023-02-15T11:50:32.083Z,100603.25
2023-02-15T11:51:36.629Z,100608.34
2023-02-15T11:52:39.459Z,100606.47
2023-02-15T11:53:44.156Z,100602.16
2023-02-15T11:54:51.525Z,100599.66
2023-02-15T11:55:55.614Z,100608.34
2023-02-15T11:57:02.562Z,100603.38
2023-02-15T11:58:40.929Z,100593.78
2023-02-15T11:59:50.701Z,100592.25
2023-02-15T12:01:19.095Z,100598.91
2023-02-15T12:02:24.295Z,100600.59
2023-02-15T12:03:56.606Z,100605.66
2023-02-15T12:05:07.781Z,100598.91
2023-02-15T12:06:17.440Z,100602.19
2023-02-15T12:07:31.887Z,100598.53
2023-02-15T12:08:44.782Z,100592.22
2023-02-15T12:09:58.745Z,100589.69
2023-02-15T12:11:13.024Z,100598.34
2023-02-15T12:12:33.034Z,100589.69
2023-02-15T12:13:35.276Z,100587.00
2023-02-15T12:14:49.787Z,100590.25
2023-02-15T12:15:58.413Z,100579.09
2023-02-15T12:17:01.092Z,100586.88
2023-02-15T12:18:03.624Z,100584.06
2023-02-15T12:19:06.028Z,100589.19
2023-02-15T12:20:25.483Z,100587.59
2023-02-15T12:21:29.534Z,100576.66
2023-02-15T12:22:37.148Z,100583.31
2023-02-15T12:23:49.135Z,100574.00
2023-02-15T12:24:55.560Z,100573.38
2023-02-15T12:25:59.235Z,100571.00
2023-02-15T12:27:14.993Z,100572.75
2023-02-15T12:28:23.433Z,100579.22
2023-02-15T12:29:30.502Z,100570.69
2023-02-15T12:30:36.845Z,100573.00
2023-02-15T12:31:42.709Z,100563.47
2023-02-15T12:32:53.895Z,100568.84
2023-02-15T12:33:59.029Z,100567.38
2023-02-15T12:35:17.888Z,100569.91
2023-02-15T12:36:31.368Z,100569.16
2023-02-15T12:37:36.763Z,100566.44
2023-02-15T12:38:39.237Z,100567.47
2023-02-15T12:39:53.364Z,100562.19
2023-02-15T12:41:04.869Z,100563.22
2023-02-15T12:42:18.000Z,100558.69
2023-02-15T12:43:34.744Z,100557.72
2023-02-15T12:44:38.077Z,100558.41
2023-02-15T12:45:40.379Z,100561.97
2023-02-15T12:46:42.682Z,100552.69
2023-02-15T12:47:44.994Z,100546.66
2023-02-15T12:48:47.353Z,100556.88
2023-02-15T12:50:12.110Z,100551.41
2023-02-15T12:51:16.427Z,100544.13
2023-02-15T12:52:18.684Z,100551.31
2023-02-15T12:53:24.402Z,100551.41
2023-02-15T12:54:36.455Z,100554.09
2023-02-15T12:55:45.480Z,100554.13
2023-02-15T12:56:47.940Z,100546.91
2023-02-15T12:57:51.424Z,100553.78
2023-02-15T12:59:06.019Z,100549.13
2023-02-15T13:00:20.123Z,100547.78
2023-02-15T13:01:26.512Z,100547.66